sensor_id;sensor_type;location;lat;lon;timestamp;P1;durP1;ratioP1;P2;durP2;ratioP2
55212;SDS011;41083;52.932;6.674;2022-12-13T00:02:12;10.75;;;5.07;;
55212;SDS011;41083;52.932;6.674;2022-12-13T00:04:38;12.52;;;6.50;;
55212;SDS011;41083;52.932;6.674;2022-12-13T00:07:03;13.10;;;5.80;;
55212;SDS011;41083;52.932;6.674;2022-12-13T00:09:29;8.48;;;4.82;;
55212;SDS011;41083;52.932;6.674;2022-12-13T00:11:54;14.15;;;6.90;;
55212;SDS011;41083;52.932;6.674;2022-12-13T00:14:20;13.93;;;7.05;;
55212;SDS011;41083;52.932;6.674;2022-12-13T00:16:46;11.85;;;5.68;;
55212;SDS011;41083;52.932;6.674;2022-12-13T00:19:13;16.13;;;5.35;;
55212;SDS011;41083;52.932;6.674;2022-12-13T00:21:39;18.42;;;6.78;;
55212;SDS011;41083;52.932;6.674;2022-12-13T00:24:05;10.02;;;5.60;;
55212;SDS011;41083;52.932;6.674;2022-12-13T00:26:32;8.27;;;3.80;;
55212;SDS011;41083;52.932;6.674;2022-12-13T00:29:01;8.80;;;4.38;;
55212;SDS011;41083;52.932;6.674;2022-12-13T00:31:29;21.52;;;5.93;;
55212;SDS011;41083;52.932;6.674;2022-12-13T00:33:58;10.48;;;5.72;;
55212;SDS011;41083;52.932;6.674;2022-12-13T00:36:24;10.75;;;5.45;;
55212;SDS011;41083;52.932;6.674;2022-12-13T00:38:50;18.10;;;6.95;;
55212;SDS011;41083;52.932;6.674;2022-12-13T00:41:25;7.90;;;5.25;;
55212;SDS011;41083;52.932;6.674;2022-12-13T00:43:53;8.90;;;4.60;;
55212;SDS011;41083;52.932;6.674;2022-12-13T00:46:18;11.85;;;3.80;;
55212;SDS011;41083;52.932;6.674;2022-12-13T00:48:50;8.82;;;4.85;;
55212;SDS011;41083;52.932;6.674;2022-12-13T00:51:17;6.28;;;3.15;;
55212;SDS011;41083;52.932;6.674;2022-12-13T00:53:43;14.80;;;5.85;;
55212;SDS011;41083;52.932;6.674;2022-12-13T00:56:10;8.43;;;5.55;;
55212;SDS011;41083;52.932;6.674;2022-12-13T00:58:37;7.00;;;4.35;;
55212;SDS011;41083;52.932;6.674;2022-12-13T01:01:04;9.52;;;3.83;;
55212;SDS011;41083;52.932;6.674;2022-12-13T01:03:31;9.88;;;5.32;;
55212;SDS011;41083;52.932;6.674;2022-12-13T01:05:57;8.05;;;4.05;;
55212;SDS011;41083;52.932;6.674;2022-12-13T01:08:23;8.88;;;5.50;;
55212;SDS011;41083;52.932;6.674;2022-12-13T01:10:49;10.18;;;6.32;;
55212;SDS011;41083;52.932;6.674;2022-12-13T01:13:15;13.27;;;6.10;;
55212;SDS011;41083;52.932;6.674;2022-12-13T01:15:41;12.68;;;5.32;;
55212;SDS011;41083;52.932;6.674;2022-12-13T01:18:07;10.30;;;5.05;;
55212;SDS011;41083;52.932;6.674;2022-12-13T01:20:34;7.95;;;5.80;;
55212;SDS011;41083;52.932;6.674;2022-12-13T01:22:59;13.80;;;6.07;;
55212;SDS011;41083;52.932;6.674;2022-12-13T01:25:25;7.93;;;5.03;;
55212;SDS011;41083;52.932;6.674;2022-12-13T01:27:51;10.52;;;5.03;;
55212;SDS011;41083;52.932;6.674;2022-12-13T01:30:16;8.90;;;4.18;;
55212;SDS011;41083;52.932;6.674;2022-12-13T01:32:42;12.13;;;5.97;;
55212;SDS011;41083;52.932;6.674;2022-12-13T01:35:08;8.40;;;4.55;;
55212;SDS011;41083;52.932;6.674;2022-12-13T01:37:33;10.63;;;5.45;;
55212;SDS011;41083;52.932;6.674;2022-12-13T01:40:00;10.32;;;4.80;;
55212;SDS011;41083;52.932;6.674;2022-12-13T01:42:27;9.35;;;4.05;;
55212;SDS011;41083;52.932;6.674;2022-12-13T01:45:14;4.90;;;3.63;;
55212;SDS011;41083;52.932;6.674;2022-12-13T01:47:52;13.18;;;5.28;;
55212;SDS011;41083;52.932;6.674;2022-12-13T01:50:26;13.20;;;4.15;;
55212;SDS011;41083;52.932;6.674;2022-12-13T01:52:56;6.43;;;4.35;;
55212;SDS011;41083;52.932;6.674;2022-12-13T01:55:23;7.03;;;3.38;;
55212;SDS011;41083;52.932;6.674;2022-12-13T01:57:52;10.10;;;4.80;;
55212;SDS011;41083;52.932;6.674;2022-12-13T02:00:20;10.80;;;5.35;;
55212;SDS011;41083;52.932;6.674;2022-12-13T02:02:46;9.30;;;4.25;;
55212;SDS011;41083;52.932;6.674;2022-12-13T02:05:15;9.60;;;6.15;;
55212;SDS011;41083;52.932;6.674;2022-12-13T02:07:42;10.52;;;6.00;;
55212;SDS011;41083;52.932;6.674;2022-12-13T02:10:09;15.00;;;4.82;;
55212;SDS011;41083;52.932;6.674;2022-12-13T02:12:35;11.05;;;4.60;;
55212;SDS011;41083;52.932;6.674;2022-12-13T02:15:05;13.43;;;4.72;;
55212;SDS011;41083;52.932;6.674;2022-12-13T02:17:53;10.85;;;4.65;;
55212;SDS011;41083;52.932;6.674;2022-12-13T02:34:29;8.07;;;4.45;;
55212;SDS011;41083;52.932;6.674;2022-12-13T02:37:08;20.00;;;6.43;;
55212;SDS011;41083;52.932;6.674;2022-12-13T02:39:45;9.40;;;4.28;;
55212;SDS011;41083;52.932;6.674;2022-12-13T02:42:22;7.30;;;4.40;;
55212;SDS011;41083;52.932;6.674;2022-12-13T02:45:02;10.95;;;5.10;;
55212;SDS011;41083;52.932;6.674;2022-12-13T02:47:34;7.20;;;4.10;;
55212;SDS011;41083;52.932;6.674;2022-12-13T02:50:05;17.25;;;4.22;;
55212;SDS011;41083;52.932;6.674;2022-12-13T02:52:32;7.63;;;3.78;;
55212;SDS011;41083;52.932;6.674;2022-12-13T02:54:58;7.03;;;4.00;;
55212;SDS011;41083;52.932;6.674;2022-12-13T02:57:32;10.13;;;5.93;;
55212;SDS011;41083;52.932;6.674;2022-12-13T03:00:04;10.25;;;4.80;;
55212;SDS011;41083;52.932;6.674;2022-12-13T03:02:41;5.13;;;3.95;;
55212;SDS011;41083;52.932;6.674;2022-12-13T03:05:20;10.70;;;4.85;;
55212;SDS011;41083;52.932;6.674;2022-12-13T03:08:38;10.55;;;5.93;;
55212;SDS011;41083;52.932;6.674;2022-12-13T03:11:15;7.82;;;4.05;;
55212;SDS011;41083;52.932;6.674;2022-12-13T03:13:46;6.25;;;3.58;;
55212;SDS011;41083;52.932;6.674;2022-12-13T03:18:47;12.60;;;5.85;;
55212;SDS011;41083;52.932;6.674;2022-12-13T03:21:14;12.18;;;4.35;;
55212;SDS011;41083;52.932;6.674;2022-12-13T03:23:39;7.25;;;4.72;;
55212;SDS011;41083;52.932;6.674;2022-12-13T03:26:12;6.28;;;4.15;;
55212;SDS011;41083;52.932;6.674;2022-12-13T03:28:44;8.32;;;4.82;;
55212;SDS011;41083;52.932;6.674;2022-12-13T03:31:10;8.02;;;3.88;;
55212;SDS011;41083;52.932;6.674;2022-12-13T03:33:36;12.35;;;6.70;;
55212;SDS011;41083;52.932;6.674;2022-12-13T03:36:02;9.05;;;4.45;;
55212;SDS011;41083;52.932;6.674;2022-12-13T03:38:29;16.25;;;3.40;;
55212;SDS011;41083;52.932;6.674;2022-12-13T03:40:56;17.13;;;5.65;;
55212;SDS011;41083;52.932;6.674;2022-12-13T03:43:26;8.82;;;3.72;;
55212;SDS011;41083;52.932;6.674;2022-12-13T03:45:53;11.48;;;3.38;;
55212;SDS011;41083;52.932;6.674;2022-12-13T03:48:19;8.27;;;4.57;;
55212;SDS011;41083;52.932;6.674;2022-12-13T03:50:45;6.00;;;5.03;;
55212;SDS011;41083;52.932;6.674;2022-12-13T03:53:11;5.93;;;3.95;;
55212;SDS011;41083;52.932;6.674;2022-12-13T03:55:37;11.10;;;3.63;;
55212;SDS011;41083;52.932;6.674;2022-12-13T03:58:02;5.85;;;3.08;;
55212;SDS011;41083;52.932;6.674;2022-12-13T04:00:28;9.95;;;4.85;;
55212;SDS011;41083;52.932;6.674;2022-12-13T04:02:54;4.25;;;3.03;;
55212;SDS011;41083;52.932;6.674;2022-12-13T04:05:19;8.23;;;4.70;;
55212;SDS011;41083;52.932;6.674;2022-12-13T04:07:45;14.38;;;4.82;;
55212;SDS011;41083;52.932;6.674;2022-12-13T04:10:11;9.65;;;4.93;;
55212;SDS011;41083;52.932;6.674;2022-12-13T04:12:37;12.65;;;3.75;;
55212;SDS011;41083;52.932;6.674;2022-12-13T04:15:21;7.20;;;5.38;;
55212;SDS011;41083;52.932;6.674;2022-12-13T04:17:46;14.18;;;5.47;;
55212;SDS011;41083;52.932;6.674;2022-12-13T04:20:12;19.35;;;5.15;;
55212;SDS011;41083;52.932;6.674;2022-12-13T04:22:38;10.43;;;3.47;;
55212;SDS011;41083;52.932;6.674;2022-12-13T04:25:03;10.13;;;5.10;;
55212;SDS011;41083;52.932;6.674;2022-12-13T04:27:29;8.52;;;3.40;;
55212;SDS011;41083;52.932;6.674;2022-12-13T04:29:55;10.55;;;4.07;;
55212;SDS011;41083;52.932;6.674;2022-12-13T04:32:21;11.10;;;4.40;;
55212;SDS011;41083;52.932;6.674;2022-12-13T04:34:47;10.10;;;4.70;;
55212;SDS011;41083;52.932;6.674;2022-12-13T04:37:12;6.97;;;4.47;;
55212;SDS011;41083;52.932;6.674;2022-12-13T04:39:38;9.85;;;5.50;;
55212;SDS011;41083;52.932;6.674;2022-12-13T04:42:04;6.32;;;3.17;;
55212;SDS011;41083;52.932;6.674;2022-12-13T04:44:29;4.78;;;3.72;;
55212;SDS011;41083;52.932;6.674;2022-12-13T04:46:55;15.93;;;6.45;;
55212;SDS011;41083;52.932;6.674;2022-12-13T04:49:21;7.22;;;4.70;;
55212;SDS011;41083;52.932;6.674;2022-12-13T04:51:47;10.75;;;5.18;;
55212;SDS011;41083;52.932;6.674;2022-12-13T04:54:13;11.05;;;4.68;;
55212;SDS011;41083;52.932;6.674;2022-12-13T04:56:38;10.77;;;4.55;;
55212;SDS011;41083;52.932;6.674;2022-12-13T04:59:04;9.60;;;4.78;;
55212;SDS011;41083;52.932;6.674;2022-12-13T05:01:30;6.15;;;4.20;;
55212;SDS011;41083;52.932;6.674;2022-12-13T05:03:55;7.28;;;3.53;;
55212;SDS011;41083;52.932;6.674;2022-12-13T05:06:21;5.68;;;3.45;;
55212;SDS011;41083;52.932;6.674;2022-12-13T05:08:46;10.27;;;4.63;;
55212;SDS011;41083;52.932;6.674;2022-12-13T05:11:12;9.13;;;5.97;;
55212;SDS011;41083;52.932;6.674;2022-12-13T05:13:37;11.20;;;5.28;;
55212;SDS011;41083;52.932;6.674;2022-12-13T05:16:04;16.98;;;3.97;;
55212;SDS011;41083;52.932;6.674;2022-12-13T05:18:32;11.38;;;5.28;;
55212;SDS011;41083;52.932;6.674;2022-12-13T05:21:02;8.45;;;4.65;;
55212;SDS011;41083;52.932;6.674;2022-12-13T05:23:29;9.00;;;3.53;;
55212;SDS011;41083;52.932;6.674;2022-12-13T05:25:55;9.48;;;5.28;;
55212;SDS011;41083;52.932;6.674;2022-12-13T05:28:21;16.23;;;4.97;;
55212;SDS011;41083;52.932;6.674;2022-12-13T05:30:52;8.60;;;4.15;;
55212;SDS011;41083;52.932;6.674;2022-12-13T05:33:19;9.27;;;4.55;;
55212;SDS011;41083;52.932;6.674;2022-12-13T05:35:45;6.35;;;5.13;;
55212;SDS011;41083;52.932;6.674;2022-12-13T05:38:10;10.93;;;5.25;;
55212;SDS011;41083;52.932;6.674;2022-12-13T05:40:36;5.03;;;3.40;;
55212;SDS011;41083;52.932;6.674;2022-12-13T05:43:02;11.82;;;5.15;;
55212;SDS011;41083;52.932;6.674;2022-12-13T05:45:29;11.45;;;4.18;;
55212;SDS011;41083;52.932;6.674;2022-12-13T05:47:55;9.80;;;5.57;;
55212;SDS011;41083;52.932;6.674;2022-12-13T05:50:22;6.57;;;4.47;;
55212;SDS011;41083;52.932;6.674;2022-12-13T05:52:48;10.73;;;5.30;;
55212;SDS011;41083;52.932;6.674;2022-12-13T05:55:13;7.70;;;4.35;;
55212;SDS011;41083;52.932;6.674;2022-12-13T05:57:39;10.77;;;7.00;;
55212;SDS011;41083;52.932;6.674;2022-12-13T06:00:06;7.80;;;4.95;;
55212;SDS011;41083;52.932;6.674;2022-12-13T06:02:40;10.32;;;4.00;;
55212;SDS011;41083;52.932;6.674;2022-12-13T06:05:08;12.50;;;5.60;;
55212;SDS011;41083;52.932;6.674;2022-12-13T06:07:34;8.93;;;6.32;;
55212;SDS011;41083;52.932;6.674;2022-12-13T06:10:00;10.90;;;5.35;;
55212;SDS011;41083;52.932;6.674;2022-12-13T06:12:26;9.60;;;5.00;;
55212;SDS011;41083;52.932;6.674;2022-12-13T06:14:52;12.35;;;5.28;;
55212;SDS011;41083;52.932;6.674;2022-12-13T06:17:17;10.30;;;7.03;;
55212;SDS011;41083;52.932;6.674;2022-12-13T06:19:43;10.52;;;4.07;;
55212;SDS011;41083;52.932;6.674;2022-12-13T06:22:10;9.65;;;5.60;;
55212;SDS011;41083;52.932;6.674;2022-12-13T06:24:36;8.10;;;5.45;;
55212;SDS011;41083;52.932;6.674;2022-12-13T06:27:02;19.55;;;5.47;;
55212;SDS011;41083;52.932;6.674;2022-12-13T06:29:29;6.70;;;4.18;;
55212;SDS011;41083;52.932;6.674;2022-12-13T06:31:56;13.18;;;6.57;;
55212;SDS011;41083;52.932;6.674;2022-12-13T06:34:23;13.52;;;6.30;;
55212;SDS011;41083;52.932;6.674;2022-12-13T06:36:49;8.65;;;4.93;;
55212;SDS011;41083;52.932;6.674;2022-12-13T06:39:15;19.23;;;6.53;;
55212;SDS011;41083;52.932;6.674;2022-12-13T06:41:40;10.38;;;5.50;;
55212;SDS011;41083;52.932;6.674;2022-12-13T06:44:06;9.57;;;7.00;;
55212;SDS011;41083;52.932;6.674;2022-12-13T06:46:32;7.07;;;5.25;;
55212;SDS011;41083;52.932;6.674;2022-12-13T06:48:58;8.23;;;4.95;;
55212;SDS011;41083;52.932;6.674;2022-12-13T06:51:25;13.15;;;6.00;;
55212;SDS011;41083;52.932;6.674;2022-12-13T06:53:51;17.15;;;7.13;;
55212;SDS011;41083;52.932;6.674;2022-12-13T06:56:17;8.63;;;4.13;;
55212;SDS011;41083;52.932;6.674;2022-12-13T06:58:42;14.93;;;5.88;;
55212;SDS011;41083;52.932;6.674;2022-12-13T07:01:09;8.43;;;5.47;;
55212;SDS011;41083;52.932;6.674;2022-12-13T07:03:36;11.55;;;5.72;;
55212;SDS011;41083;52.932;6.674;2022-12-13T07:06:03;7.50;;;5.80;;
55212;SDS011;41083;52.932;6.674;2022-12-13T07:08:31;12.38;;;4.65;;
55212;SDS011;41083;52.932;6.674;2022-12-13T07:10:56;8.13;;;4.80;;
55212;SDS011;41083;52.932;6.674;2022-12-13T07:13:22;12.90;;;5.05;;
55212;SDS011;41083;52.932;6.674;2022-12-13T07:15:48;14.70;;;5.32;;
55212;SDS011;41083;52.932;6.674;2022-12-13T07:18:14;16.20;;;4.47;;
55212;SDS011;41083;52.932;6.674;2022-12-13T07:20:41;9.57;;;5.75;;
55212;SDS011;41083;52.932;6.674;2022-12-13T07:23:07;21.17;;;12.70;;
55212;SDS011;41083;52.932;6.674;2022-12-13T07:25:33;18.92;;;11.52;;
55212;SDS011;41083;52.932;6.674;2022-12-13T07:27:59;21.17;;;10.20;;
55212;SDS011;41083;52.932;6.674;2022-12-13T07:30:31;14.32;;;9.15;;
55212;SDS011;41083;52.932;6.674;2022-12-13T07:33:02;16.60;;;5.43;;
55212;SDS011;41083;52.932;6.674;2022-12-13T07:35:29;12.15;;;5.90;;
55212;SDS011;41083;52.932;6.674;2022-12-13T07:37:55;8.18;;;5.40;;
55212;SDS011;41083;52.932;6.674;2022-12-13T07:40:20;7.13;;;4.97;;
55212;SDS011;41083;52.932;6.674;2022-12-13T07:42:48;8.15;;;4.85;;
55212;SDS011;41083;52.932;6.674;2022-12-13T07:45:16;9.75;;;4.75;;
55212;SDS011;41083;52.932;6.674;2022-12-13T07:47:42;14.40;;;6.50;;
55212;SDS011;41083;52.932;6.674;2022-12-13T07:50:08;20.88;;;6.22;;
55212;SDS011;41083;52.932;6.674;2022-12-13T07:52:34;12.38;;;6.35;;
55212;SDS011;41083;52.932;6.674;2022-12-13T07:55:00;11.20;;;5.45;;
55212;SDS011;41083;52.932;6.674;2022-12-13T07:57:26;13.02;;;5.82;;
55212;SDS011;41083;52.932;6.674;2022-12-13T07:59:52;5.78;;;3.80;;
55212;SDS011;41083;52.932;6.674;2022-12-13T08:02:17;9.48;;;6.07;;
55212;SDS011;41083;52.932;6.674;2022-12-13T08:04:43;9.95;;;5.20;;
55212;SDS011;41083;52.932;6.674;2022-12-13T08:07:09;14.23;;;6.13;;
55212;SDS011;41083;52.932;6.674;2022-12-13T08:09:35;16.77;;;7.97;;
55212;SDS011;41083;52.932;6.674;2022-12-13T08:12:01;11.68;;;6.00;;
55212;SDS011;41083;52.932;6.674;2022-12-13T08:14:27;13.93;;;6.32;;
55212;SDS011;41083;52.932;6.674;2022-12-13T08:16:53;5.60;;;4.00;;
55212;SDS011;41083;52.932;6.674;2022-12-13T08:19:18;12.90;;;6.80;;
55212;SDS011;41083;52.932;6.674;2022-12-13T08:21:44;9.52;;;6.93;;
55212;SDS011;41083;52.932;6.674;2022-12-13T08:24:10;10.35;;;5.00;;
55212;SDS011;41083;52.932;6.674;2022-12-13T08:26:35;10.45;;;6.43;;
55212;SDS011;41083;52.932;6.674;2022-12-13T08:29:01;8.88;;;4.25;;
55212;SDS011;41083;52.932;6.674;2022-12-13T08:31:28;14.05;;;5.80;;
55212;SDS011;41083;52.932;6.674;2022-12-13T08:33:54;12.85;;;5.60;;
55212;SDS011;41083;52.932;6.674;2022-12-13T08:36:20;13.55;;;6.57;;
55212;SDS011;41083;52.932;6.674;2022-12-13T08:38:48;15.32;;;7.88;;
55212;SDS011;41083;52.932;6.674;2022-12-13T08:41:17;15.73;;;7.43;;
55212;SDS011;41083;52.932;6.674;2022-12-13T08:43:43;9.27;;;6.88;;
55212;SDS011;41083;52.932;6.674;2022-12-13T08:46:08;13.35;;;7.43;;
55212;SDS011;41083;52.932;6.674;2022-12-13T08:48:34;10.32;;;6.53;;
55212;SDS011;41083;52.932;6.674;2022-12-13T08:51:04;12.25;;;7.10;;
55212;SDS011;41083;52.932;6.674;2022-12-13T08:53:32;10.15;;;6.55;;
55212;SDS011;41083;52.932;6.674;2022-12-13T08:55:59;15.68;;;6.40;;
55212;SDS011;41083;52.932;6.674;2022-12-13T08:58:25;7.95;;;5.70;;
55212;SDS011;41083;52.932;6.674;2022-12-13T09:00:51;8.23;;;5.15;;
55212;SDS011;41083;52.932;6.674;2022-12-13T09:03:17;14.52;;;6.55;;
55212;SDS011;41083;52.932;6.674;2022-12-13T09:05:42;12.98;;;6.65;;
55212;SDS011;41083;52.932;6.674;2022-12-13T09:08:08;19.77;;;8.70;;
55212;SDS011;41083;52.932;6.674;2022-12-13T09:10:34;19.48;;;8.95;;
55212;SDS011;41083;52.932;6.674;2022-12-13T09:13:00;14.40;;;7.60;;
55212;SDS011;41083;52.932;6.674;2022-12-13T09:15:26;18.00;;;7.20;;
55212;SDS011;41083;52.932;6.674;2022-12-13T09:17:52;18.15;;;6.82;;
55212;SDS011;41083;52.932;6.674;2022-12-13T09:20:18;15.27;;;6.88;;
55212;SDS011;41083;52.932;6.674;2022-12-13T09:22:44;16.17;;;8.15;;
55212;SDS011;41083;52.932;6.674;2022-12-13T09:25:10;14.88;;;5.93;;
55212;SDS011;41083;52.932;6.674;2022-12-13T09:27:35;10.82;;;7.47;;
55212;SDS011;41083;52.932;6.674;2022-12-13T09:30:01;15.73;;;7.82;;
55212;SDS011;41083;52.932;6.674;2022-12-13T09:32:27;10.00;;;7.13;;
55212;SDS011;41083;52.932;6.674;2022-12-13T09:34:53;13.70;;;6.72;;
55212;SDS011;41083;52.932;6.674;2022-12-13T09:37:18;13.50;;;7.25;;
55212;SDS011;41083;52.932;6.674;2022-12-13T09:39:44;13.20;;;7.18;;
55212;SDS011;41083;52.932;6.674;2022-12-13T09:42:21;14.43;;;7.40;;
55212;SDS011;41083;52.932;6.674;2022-12-13T09:44:51;10.90;;;5.38;;
55212;SDS011;41083;52.932;6.674;2022-12-13T09:47:25;22.30;;;7.18;;
55212;SDS011;41083;52.932;6.674;2022-12-13T09:50:00;9.13;;;6.30;;
55212;SDS011;41083;52.932;6.674;2022-12-13T09:52:34;15.90;;;7.20;;
55212;SDS011;41083;52.932;6.674;2022-12-13T09:55:16;13.98;;;7.10;;
55212;SDS011;41083;52.932;6.674;2022-12-13T09:57:45;14.75;;;8.00;;
55212;SDS011;41083;52.932;6.674;2022-12-13T10:00:12;10.43;;;6.68;;
55212;SDS011;41083;52.932;6.674;2022-12-13T10:05:16;10.35;;;7.13;;
55212;SDS011;41083;52.932;6.674;2022-12-13T10:07:45;11.63;;;6.65;;
55212;SDS011;41083;52.932;6.674;2022-12-13T10:10:12;16.17;;;6.82;;
55212;SDS011;41083;52.932;6.674;2022-12-13T10:12:38;14.80;;;7.38;;
55212;SDS011;41083;52.932;6.674;2022-12-13T10:15:09;14.05;;;7.38;;
55212;SDS011;41083;52.932;6.674;2022-12-13T10:17:37;12.82;;;7.13;;
55212;SDS011;41083;52.932;6.674;2022-12-13T10:20:15;13.68;;;6.35;;
55212;SDS011;41083;52.932;6.674;2022-12-13T10:22:42;10.57;;;6.80;;
55212;SDS011;41083;52.932;6.674;2022-12-13T10:25:08;15.27;;;6.85;;
55212;SDS011;41083;52.932;6.674;2022-12-13T10:27:44;10.85;;;5.95;;
55212;SDS011;41083;52.932;6.674;2022-12-13T10:32:58;13.75;;;8.38;;
55212;SDS011;41083;52.932;6.674;2022-12-13T10:35:30;12.70;;;6.45;;
55212;SDS011;41083;52.932;6.674;2022-12-13T10:40:41;14.93;;;7.55;;
55212;SDS011;41083;52.932;6.674;2022-12-13T10:43:17;17.17;;;8.30;;
55212;SDS011;41083;52.932;6.674;2022-12-13T10:51:02;21.38;;;7.57;;
55212;SDS011;41083;52.932;6.674;2022-12-13T10:53:32;14.45;;;8.23;;
55212;SDS011;41083;52.932;6.674;2022-12-13T10:56:17;12.93;;;7.78;;
55212;SDS011;41083;52.932;6.674;2022-12-13T10:58:45;23.63;;;11.25;;
55212;SDS011;41083;52.932;6.674;2022-12-13T11:03:42;15.60;;;7.30;;
55212;SDS011;41083;52.932;6.674;2022-12-13T11:06:19;14.75;;;8.07;;
55212;SDS011;41083;52.932;6.674;2022-12-13T11:08:45;17.02;;;6.50;;
55212;SDS011;41083;52.932;6.674;2022-12-13T11:11:10;16.20;;;8.10;;
55212;SDS011;41083;52.932;6.674;2022-12-13T11:13:39;9.75;;;6.82;;
55212;SDS011;41083;52.932;6.674;2022-12-13T11:19:16;8.60;;;5.03;;
55212;SDS011;41083;52.932;6.674;2022-12-13T11:21:49;11.57;;;6.65;;
55212;SDS011;41083;52.932;6.674;2022-12-13T11:24:27;14.50;;;8.63;;
55212;SDS011;41083;52.932;6.674;2022-12-13T11:26:57;9.85;;;6.45;;
55212;SDS011;41083;52.932;6.674;2022-12-13T11:29:44;10.45;;;6.70;;
55212;SDS011;41083;52.932;6.674;2022-12-13T11:32:27;16.30;;;6.05;;
55212;SDS011;41083;52.932;6.674;2022-12-13T11:35:20;13.60;;;7.70;;
55212;SDS011;41083;52.932;6.674;2022-12-13T11:38:15;17.02;;;6.05;;
55212;SDS011;41083;52.932;6.674;2022-12-13T11:41:08;12.68;;;7.18;;
55212;SDS011;41083;52.932;6.674;2022-12-13T11:49:14;12.02;;;7.00;;
55212;SDS011;41083;52.932;6.674;2022-12-13T11:51:49;13.13;;;8.95;;
55212;SDS011;41083;52.932;6.674;2022-12-13T11:54:32;12.52;;;7.85;;
55212;SDS011;41083;52.932;6.674;2022-12-13T11:57:04;14.30;;;7.00;;
55212;SDS011;41083;52.932;6.674;2022-12-13T11:59:47;14.27;;;8.20;;
55212;SDS011;41083;52.932;6.674;2022-12-13T12:02:19;12.27;;;6.05;;
55212;SDS011;41083;52.932;6.674;2022-12-13T12:04:58;15.93;;;8.82;;
55212;SDS011;41083;52.932;6.674;2022-12-13T12:07:40;15.80;;;7.72;;
55212;SDS011;41083;52.932;6.674;2022-12-13T12:10:16;10.18;;;6.95;;
55212;SDS011;41083;52.932;6.674;2022-12-13T12:12:54;14.32;;;7.30;;
55212;SDS011;41083;52.932;6.674;2022-12-13T12:15:33;28.55;;;12.68;;
55212;SDS011;41083;52.932;6.674;2022-12-13T12:18:03;16.80;;;5.80;;
55212;SDS011;41083;52.932;6.674;2022-12-13T12:26:26;10.50;;;6.63;;
55212;SDS011;41083;52.932;6.674;2022-12-13T12:29:09;12.23;;;6.20;;
55212;SDS011;41083;52.932;6.674;2022-12-13T12:34:12;12.70;;;8.07;;
55212;SDS011;41083;52.932;6.674;2022-12-13T12:39:39;21.48;;;9.43;;
55212;SDS011;41083;52.932;6.674;2022-12-13T12:49:59;18.42;;;11.02;;
55212;SDS011;41083;52.932;6.674;2022-12-13T12:55:43;10.75;;;6.50;;
55212;SDS011;41083;52.932;6.674;2022-12-13T13:01:16;12.43;;;6.78;;
55212;SDS011;41083;52.932;6.674;2022-12-13T13:03:55;9.80;;;6.38;;
55212;SDS011;41083;52.932;6.674;2022-12-13T13:06:52;16.10;;;6.68;;
55212;SDS011;41083;52.932;6.674;2022-12-13T13:09:20;11.60;;;7.38;;
55212;SDS011;41083;52.932;6.674;2022-12-13T13:11:46;12.98;;;7.40;;
55212;SDS011;41083;52.932;6.674;2022-12-13T13:16:53;9.77;;;6.03;;
55212;SDS011;41083;52.932;6.674;2022-12-13T13:21:54;10.32;;;5.82;;
55212;SDS011;41083;52.932;6.674;2022-12-13T13:24:25;11.98;;;6.80;;
55212;SDS011;41083;52.932;6.674;2022-12-13T13:29:34;12.93;;;6.30;;
55212;SDS011;41083;52.932;6.674;2022-12-13T13:34:43;16.23;;;8.02;;
55212;SDS011;41083;52.932;6.674;2022-12-13T13:37:43;19.67;;;7.00;;
55212;SDS011;41083;52.932;6.674;2022-12-13T13:43:00;16.23;;;6.30;;
55212;SDS011;41083;52.932;6.674;2022-12-13T13:45:27;12.07;;;8.43;;
55212;SDS011;41083;52.932;6.674;2022-12-13T13:48:01;13.10;;;6.90;;
55212;SDS011;41083;52.932;6.674;2022-12-13T13:50:57;12.52;;;6.78;;
55212;SDS011;41083;52.932;6.674;2022-12-13T13:53:33;12.90;;;7.15;;
55212;SDS011;41083;52.932;6.674;2022-12-13T13:59:30;11.68;;;7.43;;
55212;SDS011;41083;52.932;6.674;2022-12-13T14:30:12;7.88;;;6.47;;
55212;SDS011;41083;52.932;6.674;2022-12-13T14:32:40;14.45;;;7.00;;
55212;SDS011;41083;52.932;6.674;2022-12-13T14:35:19;16.52;;;7.20;;
55212;SDS011;41083;52.932;6.674;2022-12-13T14:38:00;14.00;;;6.93;;
55212;SDS011;41083;52.932;6.674;2022-12-13T14:40:28;12.40;;;7.45;;
55212;SDS011;41083;52.932;6.674;2022-12-13T14:42:56;12.48;;;6.50;;
55212;SDS011;41083;52.932;6.674;2022-12-13T14:45:32;18.38;;;7.18;;
55212;SDS011;41083;52.932;6.674;2022-12-13T14:48:02;15.88;;;8.52;;
55212;SDS011;41083;52.932;6.674;2022-12-13T14:50:32;15.40;;;8.00;;
55212;SDS011;41083;52.932;6.674;2022-12-13T14:53:00;9.90;;;6.10;;
55212;SDS011;41083;52.932;6.674;2022-12-13T14:55:32;8.57;;;5.90;;
55212;SDS011;41083;52.932;6.674;2022-12-13T14:58:01;13.02;;;6.07;;
55212;SDS011;41083;52.932;6.674;2022-12-13T15:00:30;12.15;;;7.75;;
55212;SDS011;41083;52.932;6.674;2022-12-13T15:02:59;11.00;;;6.40;;
55212;SDS011;41083;52.932;6.674;2022-12-13T15:05:28;13.15;;;7.05;;
55212;SDS011;41083;52.932;6.674;2022-12-13T15:07:56;13.23;;;6.70;;
55212;SDS011;41083;52.932;6.674;2022-12-13T15:13:05;12.63;;;7.28;;
55212;SDS011;41083;52.932;6.674;2022-12-13T15:15:42;12.98;;;6.22;;
55212;SDS011;41083;52.932;6.674;2022-12-13T15:20:37;15.50;;;7.85;;
55212;SDS011;41083;52.932;6.674;2022-12-13T15:23:08;13.02;;;7.20;;
55212;SDS011;41083;52.932;6.674;2022-12-13T15:25:57;15.10;;;7.68;;
55212;SDS011;41083;52.932;6.674;2022-12-13T15:28:33;13.40;;;7.38;;
55212;SDS011;41083;52.932;6.674;2022-12-13T15:31:01;16.67;;;8.40;;
55212;SDS011;41083;52.932;6.674;2022-12-13T15:33:30;10.02;;;6.80;;
55212;SDS011;41083;52.932;6.674;2022-12-13T15:36:16;17.85;;;5.20;;
55212;SDS011;41083;52.932;6.674;2022-12-13T15:41:21;9.85;;;6.57;;
55212;SDS011;41083;52.932;6.674;2022-12-13T15:43:54;15.35;;;7.38;;
55212;SDS011;41083;52.932;6.674;2022-12-13T15:46:27;15.10;;;6.15;;
55212;SDS011;41083;52.932;6.674;2022-12-13T15:48:55;13.20;;;5.95;;
55212;SDS011;41083;52.932;6.674;2022-12-13T15:51:23;21.23;;;8.48;;
55212;SDS011;41083;52.932;6.674;2022-12-13T15:54:03;16.67;;;9.38;;
55212;SDS011;41083;52.932;6.674;2022-12-13T15:56:34;14.02;;;8.50;;
55212;SDS011;41083;52.932;6.674;2022-12-13T15:59:25;21.27;;;8.35;;
55212;SDS011;41083;52.932;6.674;2022-12-13T16:01:55;16.15;;;8.18;;
55212;SDS011;41083;52.932;6.674;2022-12-13T16:04:22;11.63;;;6.78;;
55212;SDS011;41083;52.932;6.674;2022-12-13T16:06:49;15.90;;;6.88;;
55212;SDS011;41083;52.932;6.674;2022-12-13T16:09:27;14.93;;;7.97;;
55212;SDS011;41083;52.932;6.674;2022-12-13T16:11:58;20.02;;;8.80;;
55212;SDS011;41083;52.932;6.674;2022-12-13T16:16:54;12.18;;;7.88;;
55212;SDS011;41083;52.932;6.674;2022-12-13T16:19:21;14.50;;;7.30;;
55212;SDS011;41083;52.932;6.674;2022-12-13T16:21:47;11.32;;;7.25;;
55212;SDS011;41083;52.932;6.674;2022-12-13T16:24:13;12.38;;;7.45;;
55212;SDS011;41083;52.932;6.674;2022-12-13T16:26:43;16.48;;;8.52;;
55212;SDS011;41083;52.932;6.674;2022-12-13T16:29:11;12.20;;;8.10;;
55212;SDS011;41083;52.932;6.674;2022-12-13T16:31:40;14.43;;;7.68;;
55212;SDS011;41083;52.932;6.674;2022-12-13T16:34:07;18.05;;;9.10;;
55212;SDS011;41083;52.932;6.674;2022-12-13T16:36:32;12.57;;;7.82;;
55212;SDS011;41083;52.932;6.674;2022-12-13T16:38:58;11.85;;;6.90;;
55212;SDS011;41083;52.932;6.674;2022-12-13T16:41:24;11.77;;;5.30;;
55212;SDS011;41083;52.932;6.674;2022-12-13T16:43:59;15.20;;;6.55;;
55212;SDS011;41083;52.932;6.674;2022-12-13T16:46:27;15.73;;;7.10;;
55212;SDS011;41083;52.932;6.674;2022-12-13T16:48:53;13.05;;;7.25;;
55212;SDS011;41083;52.932;6.674;2022-12-13T16:51:19;27.10;;;12.65;;
55212;SDS011;41083;52.932;6.674;2022-12-13T16:53:45;26.17;;;15.32;;